Time;durP1;ratioP1;P1;durP2;ratioP2;P2;SDS_P1;SDS_P2;PMS_P1;PMS_P2;Temp;Humidity;BMP_temperature;BMP_pressure;BME280_temperature;BME280_humidity;BME280_pressure;Samples;Min_cycle;Max_cycle;Signal;HPM_P1;HPM_P2
2024/01/22 00:00:03;;;;;;;4.55;3.03;;;;;;;;;;1047696;28;20074;-19
2024/01/22 00:00:33;;;;;;;1.27;1.25;;;;;;;;;;1047607;28;20135;-21
2024/01/22 00:01:04;;;;;;;4.80;4.32;;;;;;;;;;1047961;28;20050;-21
2024/01/22 00:01:34;;;;;;;1.75;1.65;;;;;;;;;;1047828;28;20066;-20
2024/01/22 00:02:04;;;;;;;4.10;2.80;;;;;;;;;;1047779;28;20059;-22
2024/01/22 00:02:35;;;;;;;4.10;2.70;;;;;;;;;;1047834;28;20464;-20
2024/01/22 00:03:05;;;;;;;2.88;2.67;;;;;;;;;;1048021;28;20586;-22
2024/01/22 00:03:36;;;;;;;1.88;1.80;;;;;;;;;;1047680;28;20055;-20
2024/01/22 00:04:09;;;;;;;2.83;2.65;;;;;;;;;;1047579;28;20082;-22
2024/01/22 00:04:40;;;;;;;5.18;3.08;;;;;;;;;;1047342;28;20089;-22
2024/01/22 00:05:10;;;;;;;14.07;6.10;;;;;;;;;;1047971;28;20043;-19
2024/01/22 00:05:41;;;;;;;3.55;3.33;;;;;;;;;;1047635;28;20020;-21
2024/01/22 00:06:11;;;;;;;4.30;4.00;;;;;;;;;;1047823;28;20468;-21
2024/01/22 00:06:41;;;;;;;3.45;2.20;;;;;;;;;;1047782;28;20023;-20
2024/01/22 00:07:12;;;;;;;0.88;0.88;;;;;;;;;;1048016;28;20024;-20
2024/01/22 00:07:42;;;;;;;1.67;1.52;;;;;;;;;;1047521;28;20055;-21
2024/01/22 00:08:13;;;;;;;9.68;5.90;;;;;;;;;;1047813;28;20487;-20
2024/01/22 00:08:43;;;;;;;5.45;5.00;;;;;;;;;;1047603;28;20123;-22
2024/01/22 00:09:13;;;;;;;2.92;2.75;;;;;;;;;;1047908;28;20028;-20
2024/01/22 00:09:44;;;;;;;1.75;1.65;;;;;;;;;;1047497;28;20017;-21
2024/01/22 00:10:14;;;;;;;0.57;0.57;;;;;;;;;;1047857;28;20037;-21
2024/01/22 00:10:45;;;;;;;3.33;2.83;;;;;;;;;;1047709;28;20421;-22
2024/01/22 00:11:15;;;;;;;7.70;1.58;;;;;;;;;;1048024;28;20064;-22
2024/01/22 00:11:46;;;;;;;2.67;2.47;;;;;;;;;;1047510;28;20016;-20
2024/01/22 00:12:16;;;;;;;5.43;4.28;;;;;;;;;;1047938;28;20408;-22
2024/01/22 00:12:47;;;;;;;16.60;2.47;;;;;;;;;;1047460;28;20017;-21
2024/01/22 00:13:17;;;;;;;4.75;2.67;;;;;;;;;;1047860;28;20103;-21
2024/01/22 00:13:47;;;;;;;5.38;3.92;;;;;;;;;;1047378;28;20028;-21
2024/01/22 00:14:18;;;;;;;3.88;3.53;;;;;;;;;;1047741;28;20020;-21
2024/01/22 00:14:48;;;;;;;3.30;3.08;;;;;;;;;;1047688;28;20024;-20
2024/01/22 00:15:19;;;;;;;4.65;4.28;;;;;;;;;;1047931;28;20091;-22
2024/01/22 00:15:50;;;;;;;3.90;3.65;;;;;;;;;;1046847;28;20662;-19
2024/01/22 00:16:20;;;;;;;2.13;1.98;;;;;;;;;;1047815;28;20122;-21
2024/01/22 00:16:50;;;;;;;2.65;2.45;;;;;;;;;;1047712;28;20034;-20
2024/01/22 00:17:22;;;;;;;5.03;4.65;;;;;;;;;;1047813;28;20426;-22
2024/01/22 00:17:52;;;;;;;3.72;3.42;;;;;;;;;;1047049;28;20116;-21
2024/01/22 00:18:23;;;;;;;2.95;2.75;;;;;;;;;;1047177;28;20016;-20
2024/01/22 00:18:53;;;;;;;4.78;3.03;;;;;;;;;;1047003;28;20035;-20
2024/01/22 00:19:23;;;;;;;5.75;3.45;;;;;;;;;;1047628;28;20017;-20
2024/01/22 00:19:54;;;;;;;2.72;2.55;;;;;;;;;;1047550;28;20031;-19
2024/01/22 00:20:24;;;;;;;4.50;4.10;;;;;;;;;;1047617;28;20090;-20
2024/01/22 00:20:55;;;;;;;3.33;2.22;;;;;;;;;;1047766;28;20020;-21
2024/01/22 00:21:25;;;;;;;8.15;3.95;;;;;;;;;;1047840;28;20025;-19
2024/01/22 00:21:56;;;;;;;7.70;3.22;;;;;;;;;;1047632;28;20387;-20
2024/01/22 00:22:26;;;;;;;2.80;2.60;;;;;;;;;;1047848;28;20538;-19
2024/01/22 00:22:57;;;;;;;3.28;3.03;;;;;;;;;;1047586;28;20520;-20
2024/01/22 00:23:27;;;;;;;2.03;1.92;;;;;;;;;;1047487;28;20027;-21
2024/01/22 00:23:57;;;;;;;3.45;1.98;;;;;;;;;;1047573;28;20054;-19
2024/01/22 00:24:28;;;;;;;7.10;6.40;;;;;;;;;;1047524;28;20038;-20
2024/01/22 00:24:58;;;;;;;4.53;4.13;;;;;;;;;;1047891;28;20059;-20
2024/01/22 00:25:29;;;;;;;3.20;2.83;;;;;;;;;;1047474;28;20471;-21
2024/01/22 00:25:59;;;;;;;7.10;5.30;;;;;;;;;;1046146;28;20028;-21
2024/01/22 00:26:30;;;;;;;5.82;4.63;;;;;;;;;;1046281;28;20016;-20
2024/01/22 00:27:00;;;;;;;7.13;3.15;;;;;;;;;;1047666;28;20036;-20
2024/01/22 00:27:30;;;;;;;1.13;1.13;;;;;;;;;;1047795;28;20072;-20
2024/01/22 00:28:01;;;;;;;16.08;12.85;;;;;;;;;;1047659;28;20399;-20
2024/01/22 00:28:31;;;;;;;3.05;1.65;;;;;;;;;;1047623;28;20567;-19
2024/01/22 00:29:02;;;;;;;3.60;3.28;;;;;;;;;;1047722;28;20111;-21
2024/01/22 00:29:32;;;;;;;3.42;3.13;;;;;;;;;;1047650;28;20395;-20
2024/01/22 00:30:03;;;;;;;8.30;5.90;;;;;;;;;;1047671;28;20513;-20
2024/01/22 00:30:33;;;;;;;15.75;3.40;;;;;;;;;;1047717;28;20468;-22
2024/01/22 00:31:04;;;;;;;3.22;3.00;;;;;;;;;;1047870;28;20119;-20
2024/01/22 00:31:34;;;;;;;1.67;1.58;;;;;;;;;;1047721;28;20537;-21
2024/01/22 00:32:05;;;;;;;1.98;1.88;;;;;;;;;;1047625;28;20395;-20
2024/01/22 00:32:35;;;;;;;4.18;3.15;;;;;;;;;;1047654;28;20024;-20
2024/01/22 00:33:06;;;;;;;7.28;4.72;;;;;;;;;;1047607;28;20055;-21
2024/01/22 00:33:37;;;;;;;5.63;4.80;;;;;;;;;;1047558;28;20106;-22
2024/01/22 00:34:07;;;;;;;5.55;5.13;;;;;;;;;;1047014;28;20029;-19
2024/01/22 00:34:38;;;;;;;6.13;4.78;;;;;;;;;;1047677;28;20016;-20
2024/01/22 00:35:08;;;;;;;3.70;3.45;;;;;;;;;;1047895;28;20028;-22
2024/01/22 00:35:38;;;;;;;2.05;1.85;;;;;;;;;;1047444;28;20020;-21
2024/01/22 00:36:13;;;;;;;10.02;2.63;;;;;;;;;;1047328;28;20052;-20
2024/01/22 00:36:44;;;;;;;1.33;1.05;;;;;;;;;;1047182;28;21547;-22
2024/01/22 00:37:14;;;;;;;4.20;3.55;;;;;;;;;;1047615;28;20062;-22
2024/01/22 00:37:45;;;;;;;1.50;1.40;;;;;;;;;;1047044;28;20031;-19
2024/01/22 00:38:15;;;;;;;4.65;4.18;;;;;;;;;;1047784;28;20050;-22
2024/01/22 00:38:46;;;;;;;9.73;4.68;;;;;;;;;;1047451;28;20392;-22
2024/01/22 00:39:16;;;;;;;5.80;5.32;;;;;;;;;;1047892;28;20944;-22
2024/01/22 00:39:47;;;;;;;2.70;2.60;;;;;;;;;;1047478;28;20021;-20
2024/01/22 00:40:17;;;;;;;10.45;4.20;;;;;;;;;;1047820;28;20017;-20
2024/01/22 00:40:47;;;;;;;5.47;4.20;;;;;;;;;;1047158;28;20086;-19
2024/01/22 00:41:18;;;;;;;1.85;1.75;;;;;;;;;;1047591;28;20601;-22
2024/01/22 00:41:48;;;;;;;2.88;2.65;;;;;;;;;;1047047;28;20143;-20
2024/01/22 00:42:19;;;;;;;9.63;4.90;;;;;;;;;;1047635;28;20357;-20
2024/01/22 00:42:49;;;;;;;12.00;6.78;;;;;;;;;;1047589;28;20029;-22
2024/01/22 00:43:20;;;;;;;13.52;5.65;;;;;;;;;;1047913;28;20357;-21
2024/01/22 00:43:50;;;;;;;6.07;5.50;;;;;;;;;;1047327;28;20494;-20
2024/01/22 00:44:20;;;;;;;4.65;4.20;;;;;;;;;;1047600;28;20016;-21
2024/01/22 00:44:51;;;;;;;5.60;3.22;;;;;;;;;;1047792;28;20082;-20
2024/01/22 00:45:21;;;;;;;4.63;3.90;;;;;;;;;;1047762;28;20439;-22
2024/01/22 00:45:52;;;;;;;1.23;1.15;;;;;;;;;;1047695;28;20025;-21
2024/01/22 00:46:22;;;;;;;3.20;2.90;;;;;;;;;;1047646;28;20024;-20
2024/01/22 00:46:53;;;;;;;2.60;2.47;;;;;;;;;;1047173;28;20025;-20
2024/01/22 00:47:23;;;;;;;3.53;1.65;;;;;;;;;;1047818;28;20441;-22
2024/01/22 00:47:54;;;;;;;2.55;1.85;;;;;;;;;;1047630;28;20024;-19
2024/01/22 00:48:24;;;;;;;7.35;2.13;;;;;;;;;;1047477;28;20032;-20
2024/01/22 00:48:54;;;;;;;1.88;1.77;;;;;;;;;;1047592;28;20016;-22
2024/01/22 00:49:25;;;;;;;2.15;2.05;;;;;;;;;;1047677;28;20019;-21
2024/01/22 00:49:55;;;;;;;2.30;2.15;;;;;;;;;;1047663;28;20483;-21
2024/01/22 00:50:26;;;;;;;5.32;2.63;;;;;;;;;;1047703;28;20020;-21
2024/01/22 00:50:56;;;;;;;3.97;3.58;;;;;;;;;;1047637;28;20119;-20
2024/01/22 00:51:26;;;;;;;2.15;2.05;;;;;;;;;;1047745;28;20020;-21
2024/01/22 00:51:57;;;;;;;2.70;2.50;;;;;;;;;;1047547;28;20026;-22
2024/01/22 00:52:27;;;;;;;2.30;2.10;;;;;;;;;;1047696;28;20028;-22
2024/01/22 00:52:58;;;;;;;4.32;2.58;;;;;;;;;;1047629;28;20028;-22
2024/01/22 00:53:28;;;;;;;2.83;2.55;;;;;;;;;;1047677;28;20403;-21
2024/01/22 00:53:59;;;;;;;6.03;4.43;;;;;;;;;;1047458;28;20021;-21
2024/01/22 00:54:29;;;;;;;3.72;2.47;;;;;;;;;;1046505;28;20502;-22
2024/01/22 00:55:00;;;;;;;0.30;0.30;;;;;;;;;;1047702;28;20020;-21
2024/01/22 00:55:30;;;;;;;4.55;4.15;;;;;;;;;;1046250;28;20033;-20
2024/01/22 00:56:01;;;;;;;1.58;1.48;;;;;;;;;;1046915;28;20433;-21
2024/01/22 00:56:33;;;;;;;2.08;1.98;;;;;;;;;;1046392;28;20062;-20
2024/01/22 00:57:03;;;;;;;1.70;1.65;;;;;;;;;;1047556;28;20025;-21
2024/01/22 00:57:35;;;;;;;2.58;2.35;;;;;;;;;;1046433;28;20115;-19
2024/01/22 00:58:05;;;;;;;3.72;3.40;;;;;;;;;;1046752;28;20079;-20
2024/01/22 00:58:36;;;;;;;1.63;1.55;;;;;;;;;;1047443;28;20486;-19
2024/01/22 00:59:07;;;;;;;3.80;3.08;;;;;;;;;;1047036;28;20111;-22
2024/01/22 00:59:37;;;;;;;2.00;1.90;;;;;;;;;;1047090;28;20025;-21
2024/01/22 01:00:09;;;;;;;6.75;4.32;;;;;;;;;;1047180;28;20052;-20
2024/01/22 01:00:40;;;;;;;0.40;0.40;;;;;;;;;;1047367;28;20031;-21
2024/01/22 01:01:10;;;;;;;2.75;1.80;;;;;;;;;;1047923;28;20123;-22
2024/01/22 01:01:41;;;;;;;5.13;4.72;;;;;;;;;;1047511;28;20031;-19
2024/01/22 01:02:11;;;;;;;5.93;4.05;;;;;;;;;;1047587;28;20024;-19
2024/01/22 01:02:42;;;;;;;0.90;0.90;;;;;;;;;;1047596;28;20380;-19
2024/01/22 01:03:12;;;;;;;9.40;5.07;;;;;;;;;;1047836;28;20112;-21
2024/01/22 01:03:43;;;;;;;7.30;6.75;;;;;;;;;;1047351;28;20020;-20
2024/01/22 01:04:13;;;;;;;3.30;3.03;;;;;;;;;;1048074;28;20062;-20
2024/01/22 01:04:43;;;;;;;7.93;4.93;;;;;;;;;;1048374;28;20024;-20
2024/01/22 01:05:14;;;;;;;1.48;1.45;;;;;;;;;;1047599;28;20029;-19
2024/01/22 01:05:44;;;;;;;5.10;4.47;;;;;;;;;;1047193;28;20111;-20
2024/01/22 01:06:15;;;;;;;5.20;3.17;;;;;;;;;;1048453;28;20023;-19
2024/01/22 01:06:45;;;;;;;3.95;3.60;;;;;;;;;;1048308;28;20022;-21
2024/01/22 01:07:16;;;;;;;4.43;4.13;;;;;;;;;;1048548;28;20111;-20
2024/01/22 01:07:46;;;;;;;2.10;2.00;;;;;;;;;;1048038;28;20066;-20
2024/01/22 01:08:17;;;;;;;2.22;2.13;;;;;;;;;;1048480;28;20029;-22
2024/01/22 01:08:47;;;;;;;13.30;5.88;;;;;;;;;;1048260;28;20036;-22
2024/01/22 01:09:17;;;;;;;11.57;5.65;;;;;;;;;;1048550;28;20119;-20
2024/01/22 01:09:48;;;;;;;4.45;4.07;;;;;;;;;;1047541;28;20028;-22
2024/01/22 01:10:18;;;;;;;1.85;1.75;;;;;;;;;;1048495;28;20020;-22
2024/01/22 01:10:49;;;;;;;10.43;4.47;;;;;;;;;;1048259;28;20028;-21
2024/01/22 01:11:20;;;;;;;5.90;5.32;;;;;;;;;;1048663;28;20029;-19
2024/01/22 01:11:50;;;;;;;2.10;1.95;;;;;;;;;;1046980;28;20521;-21
2024/01/22 01:12:21;;;;;;;4.07;1.95;;;;;;;;;;1047283;28;20028;-21
2024/01/22 01:12:51;;;;;;;1.35;1.35;;;;;;;;;;1048026;28;20170;-21
2024/01/22 01:13:21;;;;;;;4.55;2.92;;;;;;;;;;1048341;28;20426;-21
2024/01/22 01:13:52;;;;;;;12.70;2.78;;;;;;;;;;1046717;28;20567;-22
2024/01/22 01:14:23;;;;;;;3.15;2.95;;;;;;;;;;1048171;28;20486;-20
2024/01/22 01:14:53;;;;;;;4.32;2.80;;;;;;;;;;1048523;28;20021;-20
2024/01/22 01:15:24;;;;;;;5.18;2.92;;;;;;;;;;1048341;28;20468;-19
2024/01/22 01:15:55;;;;;;;7.13;4.57;;;;;;;;;;1047500;28;21054;-21
2024/01/22 01:16:28;;;;;;;2.42;2.33;;;;;;;;;;1048342;28;20115;-18
2024/01/22 01:16:59;;;;;;;1.90;1.80;;;;;;;;;;1048442;28;20031;-22
2024/01/22 01:17:29;;;;;;;1.98;1.88;;;;;;;;;;1047271;28;20017;-21
2024/01/22 01:18:00;;;;;;;2.63;2.42;;;;;;;;;;1047082;28;20025;-20
2024/01/22 01:18:30;;;;;;;1.00;1.00;;;;;;;;;;1048173;28;20032;-20
2024/01/22 01:19:01;;;;;;;7.38;5.70;;;;;;;;;;1048263;28;20078;-21
2024/01/22 01:19:31;;;;;;;2.85;2.03;;;;;;;;;;1048190;28;20020;-21
2024/01/22 01:20:03;;;;;;;1.90;1.73;;;;;;;;;;1048272;28;20099;-19
2024/01/22 01:20:34;;;;;;;5.22;2.80;;;;;;;;;;1048149;28;20761;-22
2024/01/22 01:21:05;;;;;;;3.35;2.47;;;;;;;;;;1048498;28;20036;-21
2024/01/22 01:21:37;;;;;;;6.82;5.13;;;;;;;;;;1048241;28;20059;-21
2024/01/22 01:22:08;;;;;;;6.10;5.55;;;;;;;;;;1047802;28;20025;-22
2024/01/22 01:22:38;;;;;;;1.45;1.33;;;;;;;;;;1048164;28;20502;-20
2024/01/22 01:23:09;;;;;;;3.35;2.63;;;;;;;;;;1048490;28;20472;-22
2024/01/22 01:23:39;;;;;;;0.75;0.75;;;;;;;;;;1048117;28;20114;-21
2024/01/22 01:24:10;;;;;;;3.55;3.17;;;;;;;;;;1048082;28;20307;-20
2024/01/22 01:24:40;;;;;;;4.43;2.25;;;;;;;;;;1047139;28;20029;-20
2024/01/22 01:25:11;;;;;;;4.50;4.07;;;;;;;;;;1047898;28;20074;-19
2024/01/22 01:25:42;;;;;;;2.40;2.22;;;;;;;;;;1047590;28;20471;-19
2024/01/22 01:26:12;;;;;;;1.73;1.67;;;;;;;;;;1047796;28;20143;-19
2024/01/22 01:26:43;;;;;;;2.10;1.85;;;;;;;;;;1048066;28;20024;-21
2024/01/22 01:27:16;;;;;;;3.30;3.03;;;;;;;;;;1048304;28;20286;-21
2024/01/22 01:27:46;;;;;;;2.05;1.95;;;;;;;;;;1046904;28;20395;-21
2024/01/22 01:28:18;;;;;;;7.22;5.53;;;;;;;;;;1047868;28;20031;-20
2024/01/22 01:28:48;;;;;;;1.23;1.23;;;;;;;;;;1047940;28;20024;-21
2024/01/22 01:29:19;;;;;;;5.07;2.17;;;;;;;;;;1047188;28;20032;-22
2024/01/22 01:29:49;;;;;;;4.85;3.60;;;;;;;;;;1044684;28;20027;-20
2024/01/22 01:30:20;;;;;;;4.38;2.75;;;;;;;;;;1047206;28;20024;-21
2024/01/22 01:30:50;;;;;;;3.00;2.80;;;;;;;;;;1047795;28;20055;-20
2024/01/22 01:31:21;;;;;;;3.17;2.88;;;;;;;;;;1045674;28;20056;-20
2024/01/22 01:31:51;;;;;;;14.20;6.00;;;;;;;;;;1044613;28;20063;-22
2024/01/22 01:32:21;;;;;;;1.33;1.33;;;;;;;;;;1046360;28;20024;-19
2024/01/22 01:32:53;;;;;;;4.90;4.50;;;;;;;;;;1047257;28;20028;-21
2024/01/22 01:33:23;;;;;;;0.98;0.73;;;;;;;;;;1045107;28;20036;-21
2024/01/22 01:33:54;;;;;;;3.13;2.92;;;;;;;;;;1047728;28;20024;-20
2024/01/22 01:34:24;;;;;;;7.32;6.68;;;;;;;;;;1046562;28;20036;-21
2024/01/22 01:34:55;;;;;;;1.38;1.35;;;;;;;;;;1048026;28;20491;-20
2024/01/22 01:35:25;;;;;;;1.58;1.50;;;;;;;;;;1046150;28;20029;-21
2024/01/22 01:35:56;;;;;;;1.60;1.52;;;;;;;;;;1047086;28;20032;-19
2024/01/22 01:36:26;;;;;;;11.13;3.20;;;;;;;;;;1044963;28;20067;-20
2024/01/22 01:36:57;;;;;;;4.60;2.08;;;;;;;;;;1046439;28;20024;-22
2024/01/22 01:37:27;;;;;;;3.28;2.95;;;;;;;;;;1044258;28;20047;-20
2024/01/22 01:37:58;;;;;;;8.88;6.38;;;;;;;;;;1044997;28;20032;-21
2024/01/22 01:38:28;;;;;;;2.22;2.03;;;;;;;;;;1045757;28;20559;-21
2024/01/22 01:38:59;;;;;;;17.88;3.97;;;;;;;;;;1047660;28;20066;-19
2024/01/22 01:39:29;;;;;;;4.95;4.30;;;;;;;;;;1045419;28;20025;-20
2024/01/22 01:39:59;;;;;;;6.13;1.60;;;;;;;;;;1046965;28;20021;-20
2024/01/22 01:40:30;;;;;;;5.70;5.25;;;;;;;;;;1045715;28;20032;-22
2024/01/22 01:41:00;;;;;;;10.15;2.50;;;;;;;;;;1046327;28;20119;-20
2024/01/22 01:41:31;;;;;;;0.82;0.82;;;;;;;;;;1045049;28;20455;-20
2024/01/22 01:42:02;;;;;;;9.48;3.50;;;;;;;;;;1045711;28;20652;-20
2024/01/22 01:42:32;;;;;;;2.97;2.42;;;;;;;;;;1046484;28;20537;-22
2024/01/22 01:43:02;;;;;;;4.30;3.92;;;;;;;;;;1048221;28;20158;-21
2024/01/22 01:43:33;;;;;;;4.82;4.38;;;;;;;;;;1047686;28;20013;-21
2024/01/22 01:44:03;;;;;;;8.07;4.53;;;;;;;;;;1047825;28;20056;-20
2024/01/22 01:44:37;;;;;;;3.28;2.95;;;;;;;;;;1047921;28;20024;-21
2024/01/22 01:45:11;;;;;;;9.82;4.15;;;;;;;;;;1047102;28;20036;-21
2024/01/22 01:45:41;;;;;;;6.70;6.07;;;;;;;;;;1046285;28;20538;-20
2024/01/22 01:46:12;;;;;;;4.00;3.70;;;;;;;;;;1044873;28;20122;-20
2024/01/22 01:46:42;;;;;;;2.13;2.03;;;;;;;;;;1046210;28;20047;-20
2024/01/22 01:47:13;;;;;;;7.85;7.22;;;;;;;;;;1046181;28;20035;-19
2024/01/22 01:47:47;;;;;;;4.45;4.05;;;;;;;;;;1047100;28;20021;-20
2024/01/22 01:48:18;;;;;;;5.65;2.13;;;;;;;;;;1045689;28;20027;-19
2024/01/22 01:48:49;;;;;;;9.82;3.15;;;;;;;;;;1046475;28;21150;-22
2024/01/22 01:49:20;;;;;;;11.80;4.75;;;;;;;;;;1044985;28;20036;-22
2024/01/22 01:49:50;;;;;;;1.98;1.88;;;;;;;;;;1047636;28;20055;-22
2024/01/22 01:50:21;;;;;;;5.75;3.72;;;;;;;;;;1046975;28;20024;-21
2024/01/22 01:50:51;;;;;;;3.33;3.03;;;;;;;;;;1047363;28;20036;-20
2024/01/22 01:51:22;;;;;;;2.58;1.90;;;;;;;;;;1046764;28;20152;-21
2024/01/22 01:51:53;;;;;;;7.57;3.78;;;;;;;;;;1047173;28;20032;-21
2024/01/22 01:52:23;;;;;;;6.90;4.53;;;;;;;;;;1045115;28;20025;-21
2024/01/22 01:52:54;;;;;;;6.43;2.13;;;;;;;;;;1046876;28;20017;-20
2024/01/22 01:53:26;;;;;;;4.05;3.65;;;;;;;;;;1047429;28;20445;-21
2024/01/22 01:53:58;;;;;;;3.42;2.85;;;;;;;;;;1047103;28;20052;-22
2024/01/22 01:54:28;;;;;;;7.85;4.65;;;;;;;;;;1046375;28;20067;-21
2024/01/22 01:55:01;;;;;;;6.20;4.90;;;;;;;;;;1048065;28;20494;-21
2024/01/22 01:55:33;;;;;;;2.83;2.63;;;;;;;;;;1046817;28;20021;-22
2024/01/22 01:56:04;;;;;;;4.18;3.88;;;;;;;;;;1047019;28;20025;-23
2024/01/22 01:56:34;;;;;;;1.95;1.85;;;;;;;;;;1047933;28;21488;-21
2024/01/22 01:57:05;;;;;;;3.65;3.40;;;;;;;;;;1048928;28;20063;-22
2024/01/22 01:57:38;;;;;;;4.35;2.42;;;;;;;;;;1048134;28;20376;-21
2024/01/22 01:58:09;;;;;;;12.35;3.50;;;;;;;;;;1046436;28;20468;-23
2024/01/22 01:58:39;;;;;;;9.18;3.53;;;;;;;;;;1045414;28;20036;-23
2024/01/22 01:59:10;;;;;;;3.70;3.50;;;;;;;;;;1046910;28;20028;-21
2024/01/22 01:59:41;;;;;;;6.03;1.60;;;;;;;;;;1047630;28;20221;-21
2024/01/22 02:00:12;;;;;;;4.78;3.60;;;;;;;;;;1047630;28;20033;-21
2024/01/22 02:00:46;;;;;;;3.45;3.10;;;;;;;;;;1047719;28;20047;-22
2024/01/22 02:01:17;;;;;;;2.97;0.77;;;;;;;;;;1046915;28;20533;-22
2024/01/22 02:01:48;;;;;;;4.88;4.03;;;;;;;;;;1047438;28;20058;-21
2024/01/22 02:02:20;;;;;;;3.20;3.03;;;;;;;;;;1046760;28;20021;-23
2024/01/22 02:02:50;;;;;;;3.35;3.15;;;;;;;;;;1047085;28;20036;-23
2024/01/22 02:03:21;;;;;;;2.38;2.22;;;;;;;;;;1046099;28;20588;-22
2024/01/22 02:03:51;;;;;;;2.13;2.03;;;;;;;;;;1047021;28;20032;-21
2024/01/22 02:04:22;;;;;;;1.88;1.77;;;;;;;;;;1046733;28;20025;-22
2024/01/22 02:04:52;;;;;;;3.75;3.53;;;;;;;;;;1046730;28;20028;-22
2024/01/22 02:05:22;;;;;;;4.70;3.08;;;;;;;;;;1045618;28;20033;-21
2024/01/22 02:05:53;;;;;;;1.27;1.17;;;;;;;;;;1047369;28;20028;-22
2024/01/22 02:06:23;;;;;;;4.65;3.53;;;;;;;;;;1045990;28;20032;-20
2024/01/22 02:06:54;;;;;;;3.63;2.80;;;;;;;;;;1048117;28;20035;-21
2024/01/22 02:07:24;;;;;;;2.97;2.78;;;;;;;;;;1046453;28;20131;-22
2024/01/22 02:07:55;;;;;;;14.15;7.32;;;;;;;;;;1046622;28;20273;-22
2024/01/22 02:08:26;;;;;;;2.28;2.17;;;;;;;;;;1047423;28;20024;-21
2024/01/22 02:08:56;;;;;;;8.50;2.85;;;;;;;;;;1047684;28;20036;-22
2024/01/22 02:09:46;;;;;;;3.50;3.28;;;;;;;;;;1047592;28;20027;-22
2024/01/22 02:10:17;;;;;;;1.83;1.75;;;;;;;;;;1047849;28;20078;-21
2024/01/22 02:10:50;;;;;;;4.68;1.65;;;;;;;;;;1047854;28;20024;-22
2024/01/22 02:11:21;;;;;;;2.42;2.33;;;;;;;;;;1047566;28;20024;-20
2024/01/22 02:11:51;;;;;;;2.40;2.22;;;;;;;;;;1047842;28;20021;-21
2024/01/22 02:12:22;;;;;;;7.20;3.30;;;;;;;;;;1046948;28;20028;-21
2024/01/22 02:12:52;;;;;;;3.40;1.63;;;;;;;;;;1047363;28;20035;-21
2024/01/22 02:13:25;;;;;;;6.88;2.95;;;;;;;;;;1046106;28;20107;-20
2024/01/22 02:13:56;;;;;;;7.88;4.80;;;;;;;;;;1046666;28;20422;-22
2024/01/22 02:14:26;;;;;;;1.67;1.58;;;;;;;;;;1045537;28;20282;-22
2024/01/22 02:14:57;;;;;;;1.35;1.35;;;;;;;;;;1046400;28;20051;-19
2024/01/22 02:15:28;;;;;;;2.30;2.13;;;;;;;;;;1043383;28;20028;-22
2024/01/22 02:15:58;;;;;;;3.63;2.30;;;;;;;;;;1042026;28;20185;-21
2024/01/22 02:16:29;;;;;;;7.18;4.85;;;;;;;;;;1043872;28;20101;-21
2024/01/22 02:16:59;;;;;;;3.80;3.28;;;;;;;;;;1044707;28;20035;-20
2024/01/22 02:17:30;;;;;;;3.20;3.00;;;;;;;;;;1045700;28;20028;-21
2024/01/22 02:18:01;;;;;;;4.25;3.92;;;;;;;;;;1046234;28;20407;-21
2024/01/22 02:18:31;;;;;;;3.13;2.17;;;;;;;;;;1045669;28;20119;-22
2024/01/22 02:19:01;;;;;;;2.92;1.52;;;;;;;;;;1047068;28;20031;-23
2024/01/22 02:19:32;;;;;;;4.65;3.92;;;;;;;;;;1046175;28;20036;-22
2024/01/22 02:20:03;;;;;;;4.13;3.78;;;;;;;;;;1045777;28;20028;-21
2024/01/22 02:20:33;;;;;;;2.58;2.08;;;;;;;;;;1045532;28;20035;-21
2024/01/22 02:21:04;;;;;;;1.33;1.23;;;;;;;;;;1044985;28;20025;-21
2024/01/22 02:21:34;;;;;;;5.68;5.10;;;;;;;;;;1042899;28;20032;-21
2024/01/22 02:22:05;;;;;;;5.70;2.33;;;;;;;;;;1044513;28;20035;-19
2024/01/22 02:22:35;;;;;;;3.33;2.35;;;;;;;;;;1045981;28;20025;-21
2024/01/22 02:23:06;;;;;;;2.15;2.05;;;;;;;;;;1045388;28;20036;-21
2024/01/22 02:23:37;;;;;;;6.95;6.43;;;;;;;;;;1044725;28;20036;-21
2024/01/22 02:24:07;;;;;;;1.60;1.55;;;;;;;;;;1044619;28;20028;-21
2024/01/22 02:24:37;;;;;;;3.50;2.88;;;;;;;;;;1043855;28;20094;-21
2024/01/22 02:25:08;;;;;;;2.10;1.98;;;;;;;;;;1044575;28;20027;-19
2024/01/22 02:25:38;;;;;;;5.13;1.52;;;;;;;;;;1043645;28;20400;-22
2024/01/22 02:26:09;;;;;;;2.65;1.65;;;;;;;;;;1046012;28;20116;-21
2024/01/22 02:26:39;;;;;;;11.07;5.00;;;;;;;;;;1045955;28;20028;-22
2024/01/22 02:27:10;;;;;;;2.15;1.83;;;;;;;;;;1045785;28;20032;-23
2024/01/22 02:27:40;;;;;;;1.90;1.80;;;;;;;;;;1045578;28;20045;-23
2024/01/22 02:28:11;;;;;;;3.92;2.60;;;;;;;;;;1043486;28;20590;-21
2024/01/22 02:28:41;;;;;;;2.38;2.28;;;;;;;;;;1046597;28;20024;-21
2024/01/22 02:29:11;;;;;;;4.60;4.15;;;;;;;;;;1044869;28;20119;-21
2024/01/22 02:29:42;;;;;;;10.40;3.83;;;;;;;;;;1045498;28;20024;-19
2024/01/22 02:30:12;;;;;;;2.38;2.17;;;;;;;;;;1043274;28;20021;-22
2024/01/22 02:30:43;;;;;;;3.63;2.08;;;;;;;;;;1046117;28;20058;-22
2024/01/22 02:31:14;;;;;;;0.77;0.77;;;;;;;;;;1045224;28;20103;-21
2024/01/22 02:31:47;;;;;;;4.25;3.17;;;;;;;;;;1046044;28;20028;-20
2024/01/22 02:32:18;;;;;;;4.13;2.63;;;;;;;;;;1044924;28;20033;-22
2024/01/22 02:32:49;;;;;;;3.67;2.53;;;;;;;;;;1046670;28;20020;-22
2024/01/22 02:33:19;;;;;;;3.85;3.00;;;;;;;;;;1045883;28;20745;-22
2024/01/22 02:33:50;;;;;;;2.67;2.53;;;;;;;;;;1046048;28;20024;-20
2024/01/22 02:34:21;;;;;;;1.60;1.52;;;;;;;;;;1045997;28;21536;-22
2024/01/22 02:34:51;;;;;;;13.75;5.60;;;;;;;;;;1047712;28;20090;-20
2024/01/22 02:35:21;;;;;;;2.15;1.95;;;;;;;;;;1043676;28;20074;-21
2024/01/22 02:35:52;;;;;;;9.60;1.63;;;;;;;;;;1047139;28;20161;-21
2024/01/22 02:36:22;;;;;;;2.55;2.20;;;;;;;;;;1044192;28;20135;-21
2024/01/22 02:36:53;;;;;;;2.20;2.08;;;;;;;;;;1045287;28;20029;-20
2024/01/22 02:37:23;;;;;;;2.20;2.05;;;;;;;;;;1044813;28;20024;-21
2024/01/22 02:37:54;;;;;;;4.68;2.03;;;;;;;;;;1045708;28;21582;-21
2024/01/22 02:38:24;;;;;;;3.25;3.05;;;;;;;;;;1044402;28;20547;-21
2024/01/22 02:38:55;;;;;;;0.90;0.90;;;;;;;;;;1047555;28;20491;-21
2024/01/22 02:39:25;;;;;;;3.58;3.38;;;;;;;;;;1043487;28;20025;-19
2024/01/22 02:39:56;;;;;;;6.72;3.65;;;;;;;;;;1047219;28;20391;-20
2024/01/22 02:40:26;;;;;;;4.15;3.75;;;;;;;;;;1045876;28;20021;-21
2024/01/22 02:40:57;;;;;;;7.20;2.03;;;;;;;;;;1047019;28;20060;-21
2024/01/22 02:41:27;;;;;;;4.47;2.45;;;;;;;;;;1044155;28;20190;-22
2024/01/22 02:41:57;;;;;;;2.38;1.55;;;;;;;;;;1047383;28;20036;-23
2024/01/22 02:42:28;;;;;;;1.48;1.38;;;;;;;;;;1046131;28;20044;-21
2024/01/22 02:42:58;;;;;;;7.47;2.10;;;;;;;;;;1045709;28;20573;-21
2024/01/22 02:43:29;;;;;;;4.13;2.58;;;;;;;;;;1044741;28;20543;-20
2024/01/22 02:44:00;;;;;;;1.63;1.48;;;;;;;;;;1043734;28;20039;-22
2024/01/22 02:44:32;;;;;;;3.05;2.85;;;;;;;;;;1045591;28;20025;-19
2024/01/22 02:45:02;;;;;;;3.97;3.70;;;;;;;;;;1045829;28;20033;-21
2024/01/22 02:45:33;;;;;;;1.80;1.70;;;;;;;;;;1045760;28;20036;-21
2024/01/22 02:46:03;;;;;;;2.85;2.65;;;;;;;;;;1046088;28;20355;-23
2024/01/22 02:46:35;;;;;;;5.93;5.43;;;;;;;;;;1046139;28;20021;-19
2024/01/22 02:47:05;;;;;;;0.60;0.60;;;;;;;;;;1044051;28;20036;-22
2024/01/22 02:47:36;;;;;;;4.97;1.15;;;;;;;;;;1045111;28;20025;-19
2024/01/22 02:48:06;;;;;;;2.80;2.70;;;;;;;;;;1045840;28;20642;-23
2024/01/22 02:48:37;;;;;;;0.50;0.50;;;;;;;;;;1045871;28;20027;-22
2024/01/22 02:49:09;;;;;;;3.33;3.10;;;;;;;;;;1045979;28;20024;-22
2024/01/22 02:49:39;;;;;;;7.45;3.45;;;;;;;;;;1046192;28;20491;-19
2024/01/22 02:50:10;;;;;;;9.65;5.22;;;;;;;;;;1045719;28;20032;-20
2024/01/22 02:50:40;;;;;;;0.73;0.65;;;;;;;;;;1046205;28;20025;-22
2024/01/22 02:51:10;;;;;;;17.17;4.68;;;;;;;;;;1043518;28;20033;-21
2024/01/22 02:51:44;;;;;;;2.45;2.25;;;;;;;;;;1045529;28;20021;-21
2024/01/22 02:52:15;;;;;;;2.05;1.92;;;;;;;;;;1044686;28;20563;-22
2024/01/22 02:52:45;;;;;;;13.40;9.13;;;;;;;;;;1046270;28;20444;-22
2024/01/22 02:53:16;;;;;;;1.05;0.98;;;;;;;;;;1045688;28;20403;-20
2024/01/22 02:53:47;;;;;;;2.38;2.28;;;;;;;;;;1044627;28;20488;-22
2024/01/22 02:54:18;;;;;;;0.88;0.88;;;;;;;;;;1043913;28;20028;-22
2024/01/22 02:54:48;;;;;;;1.67;1.60;;;;;;;;;;1045467;28;20492;-22
2024/01/22 02:55:19;;;;;;;2.35;2.08;;;;;;;;;;1044520;28;20028;-22
2024/01/22 02:55:49;;;;;;;1.77;1.70;;;;;;;;;;1044783;28;20033;-22
2024/01/22 02:56:20;;;;;;;1.80;1.73;;;;;;;;;;1044225;28;20040;-21
2024/01/22 02:56:50;;;;;;;1.17;1.15;;;;;;;;;;1046873;28;20349;-19
2024/01/22 02:57:21;;;;;;;4.10;3.85;;;;;;;;;;1042601;28;20131;-22
2024/01/22 02:57:51;;;;;;;2.85;2.05;;;;;;;;;;1043902;28;20027;-22
2024/01/22 02:58:22;;;;;;;2.45;1.85;;;;;;;;;;1046024;28;20055;-22
2024/01/22 02:58:52;;;;;;;1.80;1.67;;;;;;;;;;1045884;28;20055;-20
2024/01/22 02:59:23;;;;;;;4.40;1.42;;;;;;;;;;1043270;28;20029;-22
2024/01/22 02:59:53;;;;;;;3.92;3.63;;;;;;;;;;1041877;28;20441;-20
2024/01/22 03:00:23;;;;;;;2.33;2.15;;;;;;;;;;1046361;28;20436;-21
2024/01/22 03:00:54;;;;;;;3.90;3.60;;;;;;;;;;1044746;28;20024;-23
2024/01/22 03:01:25;;;;;;;11.40;6.00;;;;;;;;;;1046370;28;20056;-21
2024/01/22 03:01:55;;;;;;;16.42;5.30;;;;;;;;;;1045883;28;20859;-22
2024/01/22 03:02:26;;;;;;;5.03;3.03;;;;;;;;;;1038878;28;20029;-20
2024/01/22 03:02:56;;;;;;;1.58;1.55;;;;;;;;;;1040209;28;20050;-19
2024/01/22 03:03:27;;;;;;;1.40;1.35;;;;;;;;;;1039101;28;20033;-21
2024/01/22 03:03:57;;;;;;;2.15;2.05;;;;;;;;;;1044164;28;20033;-21